Time;durP1;ratioP1;P1;durP2;ratioP2;P2;SDS_P1;SDS_P2;PMS_P1;PMS_P2;Temp;Humidity;BMP_temperature;BMP_pressure;BME280_temperature;BME280_humidity;BME280_pressure;Samples;Min_cycle;Max_cycle;Signal;HPM_P1;HPM_P2
2022/06/08 00:00:27;;;;;;;13.40;1.35;;;23.50;75.20;;;;;;4970865;28;20026;-85
2022/06/08 00:03:04;;;;;;;7.18;1.05;;;23.50;75.40;;;;;;4971764;28;20085;-84
2022/06/08 00:05:30;;;;;;;8.27;1.30;;;23.50;75.30;;;;;;4971975;28;20026;-85
2022/06/08 00:07:55;;;;;;;3.03;1.30;;;23.50;75.60;;;;;;4973206;28;20093;-83
2022/06/08 00:10:21;;;;;;;2.33;1.25;;;23.50;75.70;;;;;;4972861;28;20037;-84
2022/06/08 00:12:47;;;;;;;2.47;1.35;;;23.50;75.70;;;;;;4974169;28;20129;-84
2022/06/08 00:15:13;;;;;;;2.40;1.20;;;23.50;75.90;;;;;;4973996;28;20069;-84
2022/06/08 00:17:39;;;;;;;4.35;1.10;;;23.50;76.10;;;;;;4973989;28;20058;-83
2022/06/08 00:20:09;;;;;;;6.57;1.80;;;23.40;76.20;;;;;;4973752;28;20043;-84
2022/06/08 00:22:35;;;;;;;5.00;1.30;;;23.40;76.40;;;;;;4973709;28;20034;-84
2022/06/08 00:25:01;;;;;;;4.22;1.92;;;23.40;76.60;;;;;;4973483;28;20030;-85
2022/06/08 00:27:27;;;;;;;4.43;1.20;;;23.40;76.80;;;;;;4973861;28;20026;-84
2022/06/08 00:29:53;;;;;;;3.53;1.40;;;23.40;76.90;;;;;;4974100;28;20129;-85
2022/06/08 00:32:18;;;;;;;2.08;1.23;;;23.40;77.40;;;;;;4973455;28;20086;-85
2022/06/08 00:34:44;;;;;;;2.38;1.38;;;23.40;77.60;;;;;;4973687;28;20038;-85
2022/06/08 00:37:10;;;;;;;6.60;1.70;;;23.30;77.70;;;;;;4973535;28;20122;-84
2022/06/08 00:39:36;;;;;;;2.45;1.35;;;23.30;78.20;;;;;;4973068;28;20133;-85
2022/06/08 00:42:06;;;;;;;5.78;1.83;;;23.20;78.70;;;;;;4972919;28;20033;-84
2022/06/08 00:44:44;;;;;;;4.80;1.45;;;23.20;78.90;;;;;;4973541;28;20093;-84
2022/06/08 00:47:13;;;;;;;6.60;1.65;;;23.20;79.90;;;;;;4973981;28;20058;-85
2022/06/08 00:49:47;;;;;;;5.65;1.73;;;23.20;80.20;;;;;;4973381;28;20034;-84
2022/06/08 00:52:14;;;;;;;4.25;2.35;;;23.10;80.40;;;;;;4989752;28;20517;-83
2022/06/08 00:54:45;;;;;;;4.00;1.60;;;23.10;81.10;;;;;;4972864;28;20066;-83
2022/06/08 00:57:16;;;;;;;3.85;1.77;;;23.00;81.90;;;;;;4990663;28;20487;-84
2022/06/08 00:59:50;;;;;;;5.28;2.13;;;23.00;82.50;;;;;;4973356;28;20030;-83
2022/06/08 01:02:17;;;;;;;3.08;1.95;;;23.00;83.00;;;;;;4973388;28;20030;-84
2022/06/08 01:04:42;;;;;;;4.80;1.83;;;22.90;83.90;;;;;;4972556;28;20038;-84
2022/06/08 01:07:17;;;;;;;4.22;1.80;;;22.80;84.80;;;;;;4972847;28;20125;-84
2022/06/08 01:09:43;;;;;;;5.13;1.85;;;22.80;85.60;;;;;;4973035;28;20042;-84
2022/06/08 01:12:19;;;;;;;5.70;1.92;;;22.80;86.70;;;;;;4973271;28;20030;-83
2022/06/08 01:14:46;;;;;;;8.48;1.98;;;22.80;87.40;;;;;;4973373;28;20046;-84
2022/06/08 01:17:17;;;;;;;10.00;2.47;;;22.70;88.00;;;;;;4973125;28;20030;-84
2022/06/08 01:19:46;;;;;;;6.45;2.08;;;22.70;89.40;;;;;;4972650;28;20038;-84
2022/06/08 01:22:18;;;;;;;4.10;1.80;;;22.70;90.20;;;;;;4972412;28;20030;-85
2022/06/08 01:24:47;;;;;;;5.25;1.98;;;22.70;90.60;;;;;;4972838;28;20077;-85
2022/06/08 01:27:38;;;;;;;4.03;1.83;;;22.60;91.10;;;;;;4972930;28;20080;-83
2022/06/08 01:30:27;;;;;;;4.38;1.80;;;22.60;91.30;;;;;;4973026;28;20046;-84
2022/06/08 01:33:28;;;;;;;5.55;2.10;;;22.60;91.70;;;;;;4972768;28;20034;-83
2022/06/08 01:36:03;;;;;;;3.35;2.15;;;22.60;92.10;;;;;;4972959;28;20128;-83
2022/06/08 01:38:47;;;;;;;6.80;2.10;;;22.60;92.80;;;;;;4990125;28;20633;-83
2022/06/08 01:41:34;;;;;;;6.88;2.45;;;22.60;93.20;;;;;;4972681;28;20502;-84
2022/06/08 01:44:14;;;;;;;3.78;2.47;;;22.60;93.60;;;;;;4987768;28;20471;-84
2022/06/08 01:47:12;;;;;;;4.97;2.38;;;22.60;94.00;;;;;;4989341;28;20026;-85
2022/06/08 01:49:46;;;;;;;4.63;2.10;;;22.60;94.70;;;;;;4972428;28;20490;-84
2022/06/08 01:52:28;;;;;;;5.32;2.47;;;22.40;95.70;;;;;;4974125;28;20030;-84
2022/06/08 01:55:20;;;;;;;19.80;3.40;;;22.30;96.90;;;;;;4976354;28;20049;-84
2022/06/08 01:58:24;;;;;;;4.97;2.53;;;22.20;98.10;;;;;;4994010;28;20030;-84
2022/06/08 02:01:23;;;;;;;3.65;2.30;;;22.00;99.90;;;;;;4993745;28;20136;-83
2022/06/08 02:04:00;;;;;;;8.43;2.42;;;22.00;99.90;;;;;;4973683;28;20487;-84
2022/06/08 02:07:06;;;;;;;9.45;2.70;;;21.90;99.90;;;;;;4975065;28;20386;-84
2022/06/08 02:09:37;;;;;;;5.72;2.67;;;21.80;99.90;;;;;;4979418;28;20045;-84
2022/06/08 02:12:06;;;;;;;3.20;2.10;;;21.80;99.90;;;;;;4975821;28;20078;-85
2022/06/08 02:14:56;;;;;;;7.55;2.70;;;21.70;99.90;;;;;;4975636;28;20113;-84
2022/06/08 02:17:41;;;;;;;10.57;2.92;;;21.60;99.90;;;;;;4976236;28;20022;-84
2022/06/08 02:20:19;;;;;;;6.38;2.40;;;21.60;99.90;;;;;;4975900;28;20038;-84
2022/06/08 02:22:53;;;;;;;6.75;2.55;;;21.50;99.90;;;;;;4975802;28;20030;-84
2022/06/08 02:25:28;;;;;;;4.13;2.40;;;21.50;99.90;;;;;;4976778;28;20062;-84
2022/06/08 02:28:01;;;;;;;11.13;2.83;;;21.50;99.90;;;;;;4976146;28;20026;-84
2022/06/08 02:30:30;;;;;;;10.88;2.15;;;21.40;99.90;;;;;;4975739;28;20458;-83
2022/06/08 02:35:53;;;;;;;7.40;2.60;;;21.40;99.90;;;;;;4992604;28;20053;-85
2022/06/08 02:38:22;;;;;;;9.73;2.85;;;21.40;99.90;;;;;;4975401;28;20022;-84
2022/06/08 02:40:51;;;;;;;5.30;2.95;;;21.30;99.90;;;;;;4975430;28;20034;-84
2022/06/08 02:43:31;;;;;;;3.95;2.65;;;21.20;99.90;;;;;;4975178;28;20030;-84
2022/06/08 02:46:07;;;;;;;7.15;2.30;;;21.20;99.90;;;;;;4974994;28;20060;-84
2022/06/08 02:48:33;;;;;;;17.45;2.53;;;21.10;99.90;;;;;;4975357;28;20033;-84
2022/06/08 02:50:59;;;;;;;4.93;2.20;;;21.10;99.90;;;;;;4975263;28;20042;-84
2022/06/08 02:53:30;;;;;;;3.35;2.55;;;21.00;99.90;;;;;;4975177;28;20121;-84
2022/06/08 02:56:08;;;;;;;4.15;2.10;;;20.90;99.90;;;;;;4973499;28;20077;-85
2022/06/08 02:58:37;;;;;;;3.72;2.05;;;20.90;99.90;;;;;;4973500;28;20034;-84
2022/06/08 03:01:12;;;;;;;6.07;2.13;;;20.90;99.90;;;;;;4975134;28;20034;-85
2022/06/08 03:04:01;;;;;;;6.93;2.38;;;20.90;99.90;;;;;;4973735;28;20034;-85
2022/06/08 03:06:33;;;;;;;6.05;2.67;;;20.90;99.90;;;;;;4974109;28;20030;-84
2022/06/08 03:09:02;;;;;;;8.45;2.50;;;20.90;99.90;;;;;;4975000;28;20039;-83
2022/06/08 03:11:36;;;;;;;3.97;2.50;;;20.90;99.90;;;;;;4974404;28;20380;-82
2022/06/08 03:14:07;;;;;;;5.93;3.20;;;20.90;99.90;;;;;;4974784;28;20030;-85
2022/06/08 03:16:39;;;;;;;4.78;2.63;;;20.90;99.90;;;;;;4974414;28;20116;-85
2022/06/08 03:19:06;;;;;;;6.32;3.28;;;20.80;99.90;;;;;;4974838;28;20038;-84
2022/06/08 03:21:32;;;;;;;8.70;3.25;;;20.70;99.90;;;;;;4973816;28;20050;-84
2022/06/08 03:23:59;;;;;;;3.95;3.17;;;20.60;99.90;;;;;;4973974;28;20034;-85
2022/06/08 03:26:27;;;;;;;8.27;2.85;;;20.60;99.90;;;;;;4974213;28;20037;-84
2022/06/08 03:28:53;;;;;;;10.73;3.00;;;20.40;99.90;;;;;;4974936;28;20060;-84
2022/06/08 03:31:19;;;;;;;6.88;3.70;;;20.40;99.90;;;;;;4974457;28;20608;-85
2022/06/08 03:33:45;;;;;;;4.97;3.80;;;20.20;99.90;;;;;;4974004;28;20042;-84
2022/06/08 03:36:12;;;;;;;8.70;3.92;;;20.10;99.90;;;;;;4974696;28;20030;-85
2022/06/08 03:38:37;;;;;;;7.38;3.67;;;20.10;99.90;;;;;;4975450;28;20022;-85
2022/06/08 03:41:03;;;;;;;7.15;3.60;;;20.00;99.90;;;;;;4975094;28;20052;-85
2022/06/08 03:43:29;;;;;;;6.88;4.00;;;19.90;99.90;;;;;;4975502;28;20030;-86
2022/06/08 03:46:01;;;;;;;5.80;3.35;;;19.70;99.90;;;;;;4975414;28;20033;-86
2022/06/08 03:48:27;;;;;;;7.88;4.00;;;19.70;99.90;;;;;;4992382;28;20064;-86
2022/06/08 03:50:55;;;;;;;6.45;3.70;;;19.60;99.90;;;;;;4975055;28;20059;-85
2022/06/08 03:53:29;;;;;;;12.27;4.10;;;19.40;99.90;;;;;;4975302;28;20050;-86
2022/06/08 03:55:57;;;;;;;9.75;4.88;;;19.30;99.90;;;;;;4975279;28;20031;-85
2022/06/08 03:58:23;;;;;;;8.65;4.90;;;19.20;99.90;;;;;;4974922;28;20037;-86
2022/06/08 04:00:50;;;;;;;15.48;5.18;;;19.10;99.90;;;;;;4975053;28;20054;-86
2022/06/08 04:03:17;;;;;;;11.13;5.00;;;19.00;99.90;;;;;;4975186;28;20038;-85
2022/06/08 04:05:42;;;;;;;13.20;5.25;;;18.90;99.90;;;;;;4975095;28;20027;-83
2022/06/08 04:08:09;;;;;;;7.85;4.38;;;18.90;99.90;;;;;;4975340;28;20033;-85
2022/06/08 04:10:35;;;;;;;12.27;4.63;;;18.90;99.90;;;;;;4974636;28;20089;-86
2022/06/08 04:13:01;;;;;;;13.77;5.57;;;18.80;99.90;;;;;;4974866;28;20019;-85
2022/06/08 04:15:42;;;;;;;12.13;4.70;;;18.80;99.90;;;;;;4974628;28;20101;-85
2022/06/08 04:18:08;;;;;;;6.65;4.50;;;18.80;99.90;;;;;;4974041;28;20122;-84
2022/06/08 04:20:35;;;;;;;8.18;5.55;;;18.80;99.90;;;;;;4974503;28;20407;-86
2022/06/08 04:23:01;;;;;;;6.25;4.57;;;18.90;99.90;;;;;;4974876;28;20113;-86
2022/06/08 04:25:27;;;;;;;7.85;5.32;;;18.90;99.90;;;;;;4991817;28;20031;-85
2022/06/08 04:27:53;;;;;;;9.80;5.40;;;19.00;99.90;;;;;;4974822;28;20100;-87
2022/06/08 04:30:19;;;;;;;13.48;4.78;;;19.00;99.90;;;;;;4991750;28;20038;-86
2022/06/08 04:32:45;;;;;;;12.50;5.68;;;18.90;99.90;;;;;;4974813;28;20128;-86
2022/06/08 04:35:12;;;;;;;10.43;6.05;;;18.90;99.90;;;;;;4974021;28;20125;-85
2022/06/08 04:37:39;;;;;;;6.68;5.53;;;18.90;99.90;;;;;;4974066;28;20062;-85
2022/06/08 04:40:07;;;;;;;11.30;6.03;;;18.90;99.90;;;;;;4991734;28;20487;-85
2022/06/08 04:42:33;;;;;;;7.45;6.15;;;18.90;99.90;;;;;;4973634;28;20082;-85
2022/06/08 04:44:59;;;;;;;6.65;5.57;;;18.90;99.90;;;;;;4974493;28;20450;-86
2022/06/08 04:47:25;;;;;;;6.63;4.57;;;19.00;99.90;;;;;;4991556;28;20049;-86
2022/06/08 04:49:50;;;;;;;13.77;4.88;;;19.00;99.90;;;;;;4969379;28;20495;-85
2022/06/08 04:52:16;;;;;;;8.95;4.65;;;19.00;99.90;;;;;;4970426;28;20041;-85
2022/06/08 04:54:42;;;;;;;8.63;5.57;;;19.10;99.90;;;;;;4971712;28;20035;-86
2022/06/08 04:57:08;;;;;;;7.90;6.03;;;19.00;99.90;;;;;;4970398;28;20030;-85
2022/06/08 04:59:33;;;;;;;15.20;5.63;;;19.00;99.90;;;;;;4953592;28;20394;-85
2022/06/08 05:01:59;;;;;;;9.50;6.20;;;19.10;99.90;;;;;;4953191;28;20126;-85
2022/06/08 05:04:25;;;;;;;8.98;5.88;;;19.10;99.90;;;;;;4969662;28;20030;-85
2022/06/08 05:06:51;;;;;;;11.18;5.93;;;19.10;99.90;;;;;;4971332;28;20086;-84
2022/06/08 05:09:17;;;;;;;8.23;5.55;;;19.20;99.90;;;;;;4970366;28;20068;-85
2022/06/08 05:11:42;;;;;;;8.20;5.38;;;19.20;99.90;;;;;;4970513;28;20031;-86
2022/06/08 05:14:08;;;;;;;12.60;5.88;;;19.20;99.90;;;;;;4972050;28;20368;-86
2022/06/08 05:16:34;;;;;;;18.10;6.13;;;19.20;99.90;;;;;;4971050;28;20030;-86
2022/06/08 05:18:59;;;;;;;6.75;5.53;;;19.30;99.90;;;;;;4970668;28;20031;-85
2022/06/08 05:21:25;;;;;;;8.05;5.53;;;19.30;99.90;;;;;;4970949;28;20026;-86
2022/06/08 05:23:53;;;;;;;10.25;5.40;;;19.40;99.90;;;;;;4970400;28;20022;-86
2022/06/08 05:26:19;;;;;;;8.30;4.50;;;19.40;99.90;;;;;;4970473;28;20030;-85
2022/06/08 05:28:45;;;;;;;8.00;4.45;;;19.50;99.90;;;;;;4970495;28;20027;-87
2022/06/08 05:31:11;;;;;;;7.95;4.43;;;19.60;99.90;;;;;;4970729;28;20030;-87
2022/06/08 05:33:37;;;;;;;6.70;5.25;;;19.50;99.90;;;;;;4970688;28;20082;-90
2022/06/08 05:36:04;;;;;;;8.88;5.22;;;19.50;99.90;;;;;;4971831;28;20055;-88
2022/06/08 05:38:30;;;;;;;5.90;4.88;;;19.50;99.90;;;;;;4972074;28;20023;-89
2022/06/08 05:40:56;;;;;;;8.77;4.57;;;19.50;99.90;;;;;;4971755;28;20222;-89
2022/06/08 05:43:22;;;;;;;7.95;5.82;;;19.50;99.90;;;;;;4971614;28;20066;-88
2022/06/08 05:45:48;;;;;;;9.60;5.15;;;19.50;99.90;;;;;;4971939;28;20049;-89
2022/06/08 05:48:14;;;;;;;8.27;4.93;;;19.50;99.90;;;;;;4971858;28;20035;-88
2022/06/08 05:50:41;;;;;;;13.77;6.43;;;19.50;99.90;;;;;;4972217;28;20503;-87
2022/06/08 05:53:07;;;;;;;9.05;5.38;;;19.40;99.90;;;;;;4972312;28;20054;-88
2022/06/08 05:55:33;;;;;;;9.68;4.53;;;19.40;99.90;;;;;;4987763;28;20141;-88
2022/06/08 05:57:59;;;;;;;8.00;4.93;;;19.40;99.90;;;;;;4971743;28;20431;-88
2022/06/08 06:00:29;;;;;;;5.45;4.75;;;19.40;99.90;;;;;;4973701;28;20045;-87
2022/06/08 06:02:56;;;;;;;9.90;4.07;;;19.50;99.90;;;;;;4971767;28;20031;-88
2022/06/08 06:05:25;;;;;;;6.47;4.20;;;19.50;99.90;;;;;;4971029;28;20121;-88
2022/06/08 06:07:51;;;;;;;8.68;3.92;;;19.50;99.90;;;;;;4971541;28;20098;-88
2022/06/08 06:10:18;;;;;;;7.03;5.40;;;19.60;99.90;;;;;;4972086;28;20066;-88
2022/06/08 06:12:44;;;;;;;6.97;4.57;;;19.70;99.90;;;;;;4971619;28;20027;-87
2022/06/08 06:15:12;;;;;;;7.25;5.15;;;19.80;99.90;;;;;;4971297;28;20030;-88
2022/06/08 06:17:38;;;;;;;11.68;6.03;;;19.90;99.90;;;;;;4971383;28;20562;-88
2022/06/08 06:20:06;;;;;;;12.27;6.55;;;19.80;99.90;;;;;;4971196;28;20069;-88
2022/06/08 06:22:33;;;;;;;6.18;5.13;;;19.90;99.90;;;;;;4971188;28;20050;-88
2022/06/08 06:25:00;;;;;;;9.43;6.63;;;19.90;99.90;;;;;;4971416;28;20039;-88
2022/06/08 06:27:26;;;;;;;6.85;5.18;;;20.00;99.90;;;;;;4971462;28;20038;-88
2022/06/08 06:29:52;;;;;;;6.20;4.97;;;20.10;99.90;;;;;;4970794;28;20034;-88
2022/06/08 06:32:30;;;;;;;10.30;5.22;;;20.20;99.90;;;;;;4970890;28;20022;-88
2022/06/08 06:34:58;;;;;;;8.48;4.25;;;20.30;99.90;;;;;;4972349;28;20039;-88
2022/06/08 06:37:25;;;;;;;5.32;4.82;;;20.40;99.90;;;;;;4970536;28;20119;-88
2022/06/08 06:39:51;;;;;;;8.52;4.32;;;20.50;99.90;;;;;;4972301;28;20479;-87
2022/06/08 06:42:20;;;;;;;10.80;3.90;;;20.60;99.90;;;;;;4974308;28;20033;-87
2022/06/08 06:44:46;;;;;;;6.35;4.32;;;20.70;99.90;;;;;;4974410;28;20038;-87
2022/06/08 06:47:12;;;;;;;5.15;4.13;;;20.80;99.90;;;;;;4974205;28;20026;-87
2022/06/08 06:49:38;;;;;;;6.15;3.67;;;21.00;99.90;;;;;;4973688;28;20403;-86
2022/06/08 06:52:04;;;;;;;6.65;3.63;;;21.20;99.90;;;;;;4973248;28;20045;-85
2022/06/08 06:54:31;;;;;;;7.53;3.75;;;21.50;99.90;;;;;;4972704;28;20055;-86
2022/06/08 06:56:57;;;;;;;5.50;3.50;;;21.60;99.90;;;;;;4957331;28;20042;-87
2022/06/08 06:59:23;;;;;;;7.45;3.78;;;21.80;99.90;;;;;;4973975;28;20030;-88
2022/06/08 07:01:49;;;;;;;7.72;3.45;;;22.20;99.90;;;;;;4973373;28;20019;-87
2022/06/08 07:04:18;;;;;;;9.18;3.85;;;22.70;99.90;;;;;;4973928;28;20086;-91
2022/06/08 07:06:44;;;;;;;9.82;3.53;;;23.10;99.90;;;;;;4974079;28;20487;-86
2022/06/08 07:09:10;;;;;;;3.35;2.83;;;23.40;99.90;;;;;;4973411;28;20037;-87
2022/06/08 07:11:37;;;;;;;6.72;3.72;;;24.00;99.90;;;;;;4973890;28;20026;-88
2022/06/08 07:14:05;;;;;;;2.72;2.42;;;24.90;99.90;;;;;;4973741;28;20027;-87
2022/06/08 07:16:32;;;;;;;7.00;2.88;;;25.70;99.90;;;;;;4973253;28;20037;-88
2022/06/08 07:18:59;;;;;;;3.80;2.42;;;26.10;99.90;;;;;;4971983;28;20030;-86
2022/06/08 07:21:25;;;;;;;3.75;2.20;;;26.70;99.90;;;;;;4971814;28;20038;-86
2022/06/08 07:23:51;;;;;;;6.50;2.72;;;27.40;99.90;;;;;;4972732;28;20035;-87
2022/06/08 07:26:19;;;;;;;6.70;2.80;;;27.80;99.90;;;;;;4972979;28;20031;-85
2022/06/08 07:28:45;;;;;;;6.15;2.13;;;27.90;99.90;;;;;;4972225;28;20460;-84
2022/06/08 07:31:14;;;;;;;7.18;2.30;;;28.10;99.20;;;;;;4972412;28;20126;-83
2022/06/08 07:33:40;;;;;;;9.07;2.05;;;28.50;97.70;;;;;;4972310;28;20050;-84
2022/06/08 07:36:06;;;;;;;5.80;2.80;;;28.60;95.10;;;;;;4973367;28;20031;-83
2022/06/08 07:38:32;;;;;;;6.90;2.97;;;28.70;91.20;;;;;;4972339;28;20399;-83
2022/06/08 07:40:58;;;;;;;7.03;1.77;;;29.00;89.00;;;;;;4972175;28;20031;-84
2022/06/08 07:43:24;;;;;;;6.25;2.00;;;29.70;87.00;;;;;;4972100;28;20034;-82
2022/06/08 07:45:50;;;;;;;4.70;1.55;;;30.20;77.30;;;;;;4972023;28;20031;-83
2022/06/08 07:51:00;;;;;;;2.40;1.50;;;31.10;68.10;;;;;;4970202;28;20073;-82
2022/06/08 07:53:26;;;;;;;6.25;1.55;;;31.40;61.90;;;;;;4969192;28;20074;-83
2022/06/08 07:55:52;;;;;;;5.03;1.88;;;31.90;62.70;;;;;;4969044;28;20051;-82
2022/06/08 07:58:18;;;;;;;5.55;1.55;;;32.60;61.30;;;;;;4970440;28;20409;-84
2022/06/08 08:00:47;;;;;;;4.38;1.20;;;33.50;57.90;;;;;;4969820;28;20037;-82
2022/06/08 08:03:17;;;;;;;4.28;1.50;;;33.50;52.30;;;;;;4968412;28;20408;-81
2022/06/08 08:05:44;;;;;;;2.88;1.23;;;33.00;52.50;;;;;;4970014;28;20030;-84
2022/06/08 08:08:11;;;;;;;3.67;1.40;;;32.60;47.10;;;;;;4970158;28;20486;-83
2022/06/08 08:10:38;;;;;;;6.63;1.40;;;32.10;49.10;;;;;;4970820;28;20043;-83
2022/06/08 08:13:04;;;;;;;2.03;1.17;;;31.50;51.30;;;;;;4971452;28;20031;-84
2022/06/08 08:15:30;;;;;;;1.85;1.58;;;30.90;48.20;;;;;;4970786;28;20042;-85
2022/06/08 08:17:56;;;;;;;3.80;1.73;;;30.80;51.10;;;;;;4969419;28;20186;-85
2022/06/08 08:20:24;;;;;;;2.35;1.40;;;31.20;52.30;;;;;;4971411;28;20034;-85
2022/06/08 08:22:50;;;;;;;9.02;1.98;;;31.60;50.70;;;;;;4971548;28;20038;-85
2022/06/08 08:25:18;;;;;;;4.63;2.08;;;31.80;49.50;;;;;;4970548;28;20547;-84
2022/06/08 08:27:44;;;;;;;4.65;2.08;;;31.80;48.90;;;;;;4968894;28;20030;-84
2022/06/08 08:30:14;;;;;;;2.75;1.50;;;32.10;50.40;;;;;;4969959;28;20069;-84
2022/06/08 08:32:40;;;;;;;3.17;1.20;;;32.30;47.80;;;;;;4969735;28;20041;-84
2022/06/08 08:35:07;;;;;;;3.45;1.67;;;32.40;48.70;;;;;;4968931;28;20027;-84
2022/06/08 08:37:33;;;;;;;6.28;1.48;;;32.70;47.70;;;;;;4969090;28;20022;-83
2022/06/08 08:39:59;;;;;;;2.78;1.50;;;33.20;47.20;;;;;;4969373;28;20090;-85
2022/06/08 08:42:25;;;;;;;7.63;1.90;;;33.60;46.90;;;;;;4968144;28;20031;-82
2022/06/08 08:45:01;;;;;;;3.55;1.80;;;33.90;47.20;;;;;;4969059;28;20462;-83
2022/06/08 08:47:59;;;;;;;5.30;1.80;;;34.30;45.20;;;;;;4967769;28;20033;-84
2022/06/08 08:50:25;;;;;;;3.72;1.63;;;33.70;44.50;;;;;;4969260;28;20039;-84
2022/06/08 08:52:53;;;;;;;2.50;1.42;;;33.40;45.20;;;;;;4954760;28;20376;-86
2022/06/08 08:55:34;;;;;;;2.70;1.65;;;33.40;46.90;;;;;;4971588;28;20054;-86
2022/06/08 08:58:21;;;;;;;4.15;1.45;;;33.50;46.10;;;;;;4968865;28;20034;-85
2022/06/08 09:00:57;;;;;;;6.53;1.60;;;33.60;45.00;;;;;;4970120;28;20106;-86
2022/06/08 09:03:33;;;;;;;6.10;1.65;;;33.50;43.20;;;;;;4970600;28;20483;-84
2022/06/08 09:06:19;;;;;;;2.60;1.40;;;33.40;46.50;;;;;;4969667;28;20121;-85
2022/06/08 09:08:49;;;;;;;4.47;2.30;;;33.60;46.20;;;;;;4970029;28;20057;-87
2022/06/08 09:11:24;;;;;;;4.20;1.50;;;33.90;47.20;;;;;;4970459;28;20042;-88
2022/06/08 09:14:00;;;;;;;3.45;1.90;;;34.30;45.90;;;;;;4971949;28;20050;-86
2022/06/08 09:16:37;;;;;;;5.65;1.77;;;34.70;45.60;;;;;;4954144;28;20030;-86
2022/06/08 09:19:24;;;;;;;2.67;1.67;;;34.80;43.20;;;;;;4969213;28;20022;-84
2022/06/08 09:22:04;;;;;;;2.40;1.70;;;34.10;43.50;;;;;;4971530;28;20043;-85
2022/06/08 09:24:41;;;;;;;3.63;1.48;;;33.80;45.00;;;;;;4992078;28;20011;-83
2022/06/08 09:27:30;;;;;;;3.20;1.83;;;33.80;44.60;;;;;;4974203;28;20161;-84
2022/06/08 09:30:08;;;;;;;3.40;1.52;;;33.20;46.70;;;;;;4971334;28;20034;-83
2022/06/08 09:32:43;;;;;;;10.00;1.63;;;32.50;45.80;;;;;;4953518;28;20574;-84
2022/06/08 09:35:15;;;;;;;3.38;1.88;;;32.30;45.80;;;;;;4967075;28;20062;-86
2022/06/08 09:37:41;;;;;;;4.47;2.20;;;31.80;46.20;;;;;;4952744;28;20042;-85
2022/06/08 09:40:36;;;;;;;3.35;1.67;;;31.70;48.40;;;;;;4968101;28;20050;-84
2022/06/08 09:43:36;;;;;;;5.70;1.75;;;31.50;49.20;;;;;;4970949;28;20031;-84
2022/06/08 09:46:19;;;;;;;3.88;1.63;;;31.50;48.50;;;;;;4922804;28;20711;-87
2022/06/08 09:51:38;;;;;;;8.43;2.28;;;32.40;47.50;;;;;;4971002;28;20094;-83
2022/06/08 09:54:33;;;;;;;3.65;1.35;;;32.80;47.40;;;;;;4955399;28;20086;-90
2022/06/08 09:57:20;;;;;;;1.98;1.38;;;32.50;42.80;;;;;;4967230;28;20042;-85
2022/06/08 10:00:04;;;;;;;1.90;1.00;;;31.60;43.90;;;;;;4953743;28;20041;-85
2022/06/08 10:02:56;;;;;;;2.17;1.00;;;31.70;44.30;;;;;;4952992;28;20042;-85
2022/06/08 10:05:49;;;;;;;6.40;1.25;;;31.60;42.20;;;;;;4968791;28;20026;-83
2022/06/08 10:08:22;;;;;;;1.10;1.00;;;31.40;42.50;;;;;;4969518;28;20031;-82
2022/06/08 10:11:34;;;;;;;5.82;1.10;;;31.30;43.50;;;;;;4967033;28;20477;-83
2022/06/08 10:14:12;;;;;;;5.20;1.27;;;31.20;45.20;;;;;;4972633;28;20131;-87
2022/06/08 10:16:49;;;;;;;3.75;1.10;;;30.90;42.90;;;;;;4957046;28;20443;-84
2022/06/08 10:19:26;;;;;;;7.70;0.80;;;30.60;45.00;;;;;;4973491;28;20109;-87
2022/06/08 10:21:53;;;;;;;2.72;0.98;;;30.50;42.00;;;;;;4973910;28;20038;-85
2022/06/08 10:24:26;;;;;;;6.38;1.10;;;30.40;41.80;;;;;;4957217;28;20436;-85
2022/06/08 10:27:13;;;;;;;7.10;1.10;;;30.50;40.90;;;;;;4973322;28;20038;-85
2022/06/08 10:30:06;;;;;;;8.25;0.90;;;30.40;40.00;;;;;;4974767;28;20038;-88
2022/06/08 10:33:01;;;;;;;9.50;1.00;;;30.20;41.70;;;;;;4967338;28;20030;-87
2022/06/08 10:35:33;;;;;;;9.48;1.40;;;30.20;42.00;;;;;;4950475;28;20403;-86
2022/06/08 10:38:00;;;;;;;5.60;2.05;;;30.30;41.30;;;;;;4974607;28;20106;-86
2022/06/08 10:40:36;;;;;;;8.85;1.27;;;30.60;41.10;;;;;;4972687;28;20035;-84
2022/06/08 10:43:03;;;;;;;14.90;1.95;;;30.80;38.90;;;;;;4972040;28;20023;-84
2022/06/08 10:45:43;;;;;;;7.18;1.25;;;30.70;39.70;;;;;;4972453;28;20031;-85
2022/06/08 10:48:15;;;;;;;3.53;1.08;;;30.70;41.30;;;;;;4971505;28;20031;-89
2022/06/08 10:50:43;;;;;;;5.22;1.20;;;30.60;39.60;;;;;;4956747;28;20039;-85
2022/06/08 10:56:24;;;;;;;2.92;1.15;;;30.50;42.00;;;;;;4974267;28;20093;-85
2022/06/08 10:59:07;;;;;;;5.78;0.80;;;30.50;44.50;;;;;;4956350;28;20406;-86
2022/06/08 11:01:52;;;;;;;8.00;1.00;;;30.50;42.90;;;;;;4956409;28;20127;-85
2022/06/08 11:04:26;;;;;;;2.78;1.25;;;30.20;44.70;;;;;;4973852;28;20041;-86
2022/06/08 11:07:01;;;;;;;2.40;1.42;;;29.70;47.30;;;;;;4955966;28;20170;-84
2022/06/08 11:09:33;;;;;;;5.35;1.50;;;29.50;48.00;;;;;;4971733;28;20038;-85
2022/06/08 11:12:12;;;;;;;2.92;1.33;;;29.20;48.60;;;;;;4955980;28;20026;-85
2022/06/08 11:14:44;;;;;;;7.43;1.20;;;29.00;50.10;;;;;;4973756;28;20034;-85
2022/06/08 11:17:17;;;;;;;3.33;1.67;;;28.90;51.00;;;;;;4973211;28;20607;-86
2022/06/08 11:19:44;;;;;;;3.90;1.52;;;29.00;49.10;;;;;;4972179;28;20027;-85
2022/06/08 11:22:15;;;;;;;3.95;1.23;;;28.90;49.40;;;;;;4972310;28;20086;-84
2022/06/08 11:24:52;;;;;;;2.47;1.40;;;28.60;49.70;;;;;;4971920;28;20023;-86
2022/06/08 11:27:27;;;;;;;3.88;1.50;;;28.70;50.70;;;;;;4972383;28;20037;-86
2022/06/08 11:29:59;;;;;;;9.23;1.70;;;28.70;51.40;;;;;;4971542;28;20473;-85
2022/06/08 11:32:34;;;;;;;3.70;1.63;;;28.50;50.50;;;;;;4972423;28;20372;-87
2022/06/08 11:35:12;;;;;;;2.42;1.50;;;28.60;51.00;;;;;;4954169;28;20031;-85
2022/06/08 11:37:59;;;;;;;3.50;1.48;;;28.70;51.10;;;;;;4973123;28;20023;-86
2022/06/08 11:40:30;;;;;;;6.25;1.95;;;28.70;52.40;;;;;;4956400;28;20051;-87
2022/06/08 11:43:15;;;;;;;9.60;2.00;;;28.90;52.30;;;;;;4972995;28;20057;-87
2022/06/08 11:45:47;;;;;;;4.78;1.80;;;29.10;51.30;;;;;;4956972;28;20133;-86
2022/06/08 11:48:20;;;;;;;4.15;1.70;;;29.10;52.00;;;;;;4972343;28;20034;-85
2022/06/08 11:50:52;;;;;;;7.30;1.65;;;29.30;52.70;;;;;;4971464;28;20054;-86
2022/06/08 11:53:20;;;;;;;11.90;1.90;;;29.40;50.90;;;;;;4955599;28;20380;-86
2022/06/08 11:55:56;;;;;;;7.03;2.45;;;29.60;49.00;;;;;;4971508;28;20541;-87
2022/06/08 11:58:28;;;;;;;3.80;1.92;;;29.40;49.40;;;;;;4954964;28;20051;-86
2022/06/08 12:01:06;;;;;;;2.45;1.73;;;29.00;49.80;;;;;;4969743;28;20035;-89
2022/06/08 12:03:45;;;;;;;6.80;1.60;;;28.90;50.60;;;;;;4969165;28;20055;-87
2022/06/08 12:06:13;;;;;;;7.80;1.83;;;28.90;51.00;;;;;;4974305;28;20098;-89
2022/06/08 12:08:44;;;;;;;2.05;1.55;;;28.80;50.60;;;;;;4972562;28;20054;-86
2022/06/08 12:11:13;;;;;;;7.22;1.70;;;29.00;51.30;;;;;;4956288;28;20039;-87
2022/06/08 12:13:50;;;;;;;7.25;2.03;;;29.10;51.60;;;;;;4971558;28;20121;-86
2022/06/08 12:16:59;;;;;;;5.32;2.08;;;29.00;51.50;;;;;;4971968;28;20038;-89
2022/06/08 12:19:29;;;;;;;9.20;1.98;;;28.80;52.00;;;;;;4941215;28;20133;-85
2022/06/08 12:22:16;;;;;;;3.00;1.60;;;28.80;51.90;;;;;;4972675;28;20019;-87
2022/06/08 12:24:43;;;;;;;3.10;1.63;;;28.60;51.60;;;;;;4972004;28;20083;-87
2022/06/08 12:27:22;;;;;;;17.23;1.70;;;28.60;52.30;;;;;;4972009;28;20058;-87
2022/06/08 12:29:47;;;;;;;2.28;1.30;;;28.70;51.00;;;;;;4972026;28;20035;-87
2022/06/08 12:32:20;;;;;;;6.68;1.63;;;28.80;50.90;;;;;;4971687;28;20031;-87
2022/06/08 12:35:07;;;;;;;2.97;1.80;;;29.00;51.90;;;;;;4973274;28;20515;-88
2022/06/08 12:37:44;;;;;;;5.63;1.80;;;29.10;51.70;;;;;;4962076;28;20046;-86
2022/06/08 12:40:16;;;;;;;5.88;1.67;;;29.20;51.70;;;;;;4972784;28;20061;-87
2022/06/08 12:43:00;;;;;;;2.65;1.50;;;29.30;51.50;;;;;;4988545;28;20313;-87
2022/06/08 12:45:30;;;;;;;3.25;1.88;;;29.50;52.80;;;;;;4989601;28;20052;-86
2022/06/08 12:47:56;;;;;;;6.82;1.65;;;29.40;50.70;;;;;;4974836;28;20027;-87
2022/06/08 12:50:29;;;;;;;4.00;1.80;;;29.30;49.90;;;;;;4997994;28;20564;-86
2022/06/08 12:52:55;;;;;;;9.00;1.85;;;29.20;47.90;;;;;;4997040;28;20049;-86
2022/06/08 12:55:26;;;;;;;2.17;1.60;;;29.00;48.80;;;;;;4982913;28;20046;-86
2022/06/08 12:57:52;;;;;;;5.65;1.60;;;29.00;50.10;;;;;;4981561;28;20034;-88
2022/06/08 13:00:21;;;;;;;6.43;1.38;;;29.20;49.70;;;;;;4989495;28;20430;-87
2022/06/08 13:02:47;;;;;;;5.47;2.05;;;29.40;50.40;;;;;;4975685;28;20076;-87
2022/06/08 13:05:30;;;;;;;5.15;1.60;;;29.50;50.20;;;;;;4984605;28;20414;-87
2022/06/08 13:07:58;;;;;;;3.00;1.40;;;29.20;49.30;;;;;;4968872;28;20043;-83
2022/06/08 13:10:26;;;;;;;5.57;1.40;;;28.90;50.10;;;;;;5000306;28;20048;-84
2022/06/08 13:12:58;;;;;;;5.88;1.52;;;28.70;50.30;;;;;;4969801;28;20054;-85
2022/06/08 13:15:27;;;;;;;3.40;1.75;;;28.80;50.30;;;;;;4993750;28;20036;-85
2022/06/08 13:17:54;;;;;;;5.00;1.60;;;29.10;50.40;;;;;;4981636;28;20095;-87
2022/06/08 13:20:25;;;;;;;3.70;1.52;;;29.30;49.50;;;;;;4984133;28;20034;-87